SILO ALERT LOG


Silo ID Alert Type Alert Message Silo Type Points Depth (mm) Strength Temperature (°C) Humidity (%) Height (mm) Volume (㎥) Weight (t) Flag Time
WJWJR01 Humidity 습도센서 측정값이 80% 초과 71 7540 1201 28.4 80.6 99 11.31 7.15 0 2026-07-06 13:25:58.000
WJWJR01 Humidity 습도센서 측정값이 80% 초과 77 7500 1221 27.7 83.5 139 15.834 10.01 0 2026-07-06 12:26:04.000
WJWJR01 Humidity 습도센서 측정값이 80% 초과 72 7510 1193 26.6 85 129 14.703 9.295 0 2026-07-06 11:25:59.000
WJWJR01 Humidity 습도센서 측정값이 80% 초과 75 7510 1222 25.9 85.7 129 14.703 9.295 0 2026-07-06 10:25:57.000
WJWJR01 Humidity 습도센서 측정값이 80% 초과 72 7560 1187 25.7 85 80 9.048 5.72 0 2026-07-06 09:25:56.000
WJWJR01 Humidity 습도센서 측정값이 80% 초과 76 7550 1222 24 80.1 89 10.179 6.435 0 2026-07-06 06:25:58.000
WJWJR01 Humidity 습도센서 측정값이 80% 초과 75 7510 1230 24 80.3 129 14.703 9.295 0 2026-07-06 05:26:00.000
WJWJR01 Humidity 습도센서 측정값이 80% 초과 69 5470 2129 23.8 80.1 2170 245.421 155.155 0 2026-06-30 07:25:58.000
WJWJR01 Humidity 습도센서 측정값이 80% 초과 70 5430 2136 23.6 80.4 2210 249.945 158.015 0 2026-06-30 06:25:56.000
WJWJR01 Humidity 습도센서 측정값이 80% 초과 70 4360 1658 23.3 80.2 3279 370.959 234.52 0 2026-06-29 06:26:07.000
WJWJR01 Humidity 습도센서 측정값이 80% 초과 70 4340 1641 22 81.7 3300 373.221 235.95 0 2026-06-28 07:26:07.000
WJWJR01 Humidity 습도센서 측정값이 80% 초과 69 4330 1654 21.7 82 3309 374.352 236.665 0 2026-06-28 06:26:09.000
WJWJR01 Humidity 습도센서 측정값이 80% 초과 69 5500 1678 22 81.6 2139 242.028 153.01 0 2026-06-28 05:26:10.000
WJWJR01 Humidity 습도센서 측정값이 80% 초과 70 4330 1653 22.3 81.2 3309 374.352 236.665 0 2026-06-28 04:26:07.000
WJWJR01 Humidity 습도센서 측정값이 80% 초과 70 4370 1642 22.8 80.7 3269 369.828 233.805 0 2026-06-28 03:26:07.000
WJWJR01 Humidity 습도센서 측정값이 80% 초과 69 4320 1673 23.3 80.2 3319 375.483 237.38 0 2026-06-28 02:26:10.000
WJWJR01 Humidity 습도센서 측정값이 80% 초과 69 5470 1677 21.6 81.9 2170 245.421 155.155 0 2026-06-27 08:26:11.000
WJWJR01 Humidity 습도센서 측정값이 80% 초과 70 4250 1655 20.9 82.8 3389 383.4 242.385 0 2026-06-27 07:26:10.000
WJWJR01 Humidity 습도센서 측정값이 80% 초과 71 4420 1659 20.7 82.7 3219 364.173 230.23 0 2026-06-27 06:26:07.000
WJWJR01 Humidity 습도센서 측정값이 80% 초과 69 4380 1658 20.9 82.6 3260 368.697 233.09 0 2026-06-27 05:26:10.000

[첫 페이지] [39] [40] [41] [42] 43 [44] [45] [46] [47] [마지막 페이지]